createdAt,value
2017-12-31T00:01:43.425Z,85.80
2017-12-31T00:04:12.117Z,85.10
2017-12-31T00:06:40.808Z,85.20
2017-12-31T00:09:09.468Z,85.00
2017-12-31T00:11:38.161Z,84.70
2017-12-31T00:14:06.830Z,85.30
2017-12-31T00:16:35.502Z,85.20
2017-12-31T00:19:04.190Z,85.30
2017-12-31T00:21:32.876Z,85.00
2017-12-31T00:24:01.576Z,85.10
2017-12-31T00:26:30.237Z,85.10
2017-12-31T00:28:58.910Z,85.40
2017-12-31T00:31:28.364Z,85.90
2017-12-31T00:33:57.032Z,85.90
2017-12-31T00:36:26.489Z,86.90
2017-12-31T00:38:55.157Z,86.90
2017-12-31T00:41:23.836Z,87.40
2017-12-31T00:43:52.520Z,87.50
2017-12-31T00:46:21.210Z,87.80
2017-12-31T00:48:49.888Z,88.50
2017-12-31T00:51:18.581Z,88.20
2017-12-31T00:53:47.250Z,88.60
2017-12-31T00:56:15.944Z,88.70
2017-12-31T00:58:44.615Z,88.70
2017-12-31T01:01:13.286Z,88.40
2017-12-31T01:03:42.737Z,88.70
2017-12-31T01:06:11.414Z,88.70
2017-12-31T01:08:40.105Z,88.60
2017-12-31T01:11:08.773Z,89.20
2017-12-31T01:13:37.470Z,89.40
2017-12-31T01:16:06.147Z,89.30
2017-12-31T01:18:34.818Z,89.00
2017-12-31T01:21:03.501Z,89.00
2017-12-31T01:23:32.175Z,89.20
2017-12-31T01:26:01.649Z,90.00
2017-12-31T01:28:30.323Z,90.00
2017-12-31T01:30:58.992Z,90.10
2017-12-31T01:33:27.677Z,90.50
2017-12-31T01:35:56.345Z,90.80
2017-12-31T01:38:25.048Z,91.30
2017-12-31T01:40:53.718Z,91.70
2017-12-31T01:43:22.382Z,92.20
2017-12-31T01:45:51.825Z,93.00
2017-12-31T01:48:20.500Z,93.00
2017-12-31T01:50:49.197Z,93.40
2017-12-31T01:53:17.864Z,93.80
2017-12-31T01:55:47.301Z,94.50
2017-12-31T01:58:15.983Z,94.60
2017-12-31T02:00:44.640Z,94.80
2017-12-31T02:03:14.096Z,95.30
2017-12-31T02:05:42.784Z,95.30
2017-12-31T02:08:11.445Z,95.50
2017-12-31T02:10:40.124Z,95.80
2017-12-31T02:13:08.788Z,96.10
2017-12-31T02:15:38.240Z,96.40
2017-12-31T02:18:06.909Z,96.40
2017-12-31T02:20:36.336Z,96.80
2017-12-31T02:23:05.033Z,96.80
2017-12-31T02:25:33.365Z,97.20
2017-12-31T02:28:02.069Z,97.80
2017-12-31T02:30:31.317Z,98.60
2017-12-31T02:32:59.986Z,98.60
2017-12-31T02:35:28.672Z,98.80
2017-12-31T02:37:57.341Z,99.30
2017-12-31T02:40:25.855Z,99.60
2017-12-31T02:42:54.193Z,99.90
2017-12-31T02:45:22.865Z,99.90
2017-12-31T02:47:51.744Z,99.90
2017-12-31T02:50:20.428Z,99.90
2017-12-31T02:52:49.130Z,99.90
2017-12-31T02:55:17.801Z,99.90
2017-12-31T02:57:46.468Z,99.90
2017-12-31T03:00:15.145Z,99.90
2017-12-31T03:02:43.831Z,99.90
2017-12-31T03:05:12.517Z,99.90
2017-12-31T03:07:41.190Z,99.90
2017-12-31T03:10:09.861Z,99.90
2017-12-31T03:12:38.550Z,99.90
2017-12-31T03:15:07.208Z,99.90
2017-12-31T03:17:35.904Z,99.90
2017-12-31T03:20:04.570Z,99.90
2017-12-31T03:22:33.058Z,99.90
2017-12-31T03:25:01.741Z,99.90
2017-12-31T03:27:30.412Z,99.90
2017-12-31T03:29:59.680Z,99.90
2017-12-31T03:32:28.340Z,99.90
2017-12-31T03:34:57.008Z,99.90
2017-12-31T03:37:25.688Z,99.90
2017-12-31T03:39:54.360Z,99.90
2017-12-31T03:42:23.812Z,99.90
2017-12-31T03:44:52.480Z,99.90
2017-12-31T03:47:21.144Z,99.90
2017-12-31T03:49:50.592Z,99.90
2017-12-31T03:52:19.258Z,99.90
2017-12-31T03:54:47.966Z,99.90
2017-12-31T03:57:16.636Z,99.90
2017-12-31T03:59:45.313Z,99.90
2017-12-31T04:02:13.988Z,99.90
2017-12-31T04:04:42.660Z,99.90
2017-12-31T04:07:12.117Z,99.90
2017-12-31T04:09:40.777Z,99.90
2017-12-31T04:12:09.445Z,99.90
2017-12-31T04:14:38.898Z,99.90
2017-12-31T04:17:07.569Z,99.90
2017-12-31T04:19:36.264Z,99.90
2017-12-31T04:22:04.928Z,99.90
2017-12-31T04:24:33.597Z,99.90
2017-12-31T05:52:01.353Z,99.90
2017-12-31T05:54:30.794Z,99.90
2017-12-31T05:56:59.129Z,99.90
2017-12-31T05:59:27.813Z,99.90
2017-12-31T06:01:56.476Z,99.90
2017-12-31T06:04:25.165Z,99.90
2017-12-31T06:06:53.825Z,99.90
2017-12-31T06:09:22.156Z,99.90
2017-12-31T06:11:50.845Z,99.90
2017-12-31T06:14:20.271Z,99.90
2017-12-31T06:16:48.956Z,99.90
2017-12-31T06:19:18.577Z,99.90
2017-12-31T06:21:47.242Z,99.90
2017-12-31T06:24:16.681Z,99.90
2017-12-31T06:26:45.407Z,99.90
2017-12-31T06:29:14.098Z,99.90
2017-12-31T06:31:42.753Z,99.90
2017-12-31T06:34:11.414Z,99.90
2017-12-31T06:36:40.090Z,99.90
2017-12-31T06:39:08.744Z,99.90
2017-12-31T06:41:37.434Z,99.90
2017-12-31T06:44:06.101Z,99.90
2017-12-31T06:46:34.760Z,99.90
2017-12-31T06:49:03.439Z,99.90
2017-12-31T06:51:32.096Z,99.90
2017-12-31T06:54:01.920Z,99.90
2017-12-31T06:56:30.583Z,99.90
2017-12-31T06:58:59.248Z,99.90
2017-12-31T07:01:27.615Z,99.90
2017-12-31T07:03:56.279Z,99.90
2017-12-31T07:06:24.972Z,99.90
2017-12-31T07:08:53.639Z,99.90
2017-12-31T07:11:22.300Z,99.90
2017-12-31T07:13:50.983Z,99.90
2017-12-31T07:16:19.645Z,99.90
2017-12-31T07:18:48.336Z,99.90
2017-12-31T07:21:17.045Z,99.90
2017-12-31T07:23:45.859Z,99.90
2017-12-31T07:26:14.532Z,99.90
2017-12-31T07:28:43.965Z,99.90
2017-12-31T07:31:12.663Z,99.90
2017-12-31T07:33:42.097Z,99.90
2017-12-31T07:36:10.776Z,99.90
2017-12-31T07:38:39.490Z,99.90
2017-12-31T07:41:08.166Z,99.90
2017-12-31T07:43:36.855Z,99.90
2017-12-31T07:46:05.526Z,99.90
2017-12-31T07:48:41.520Z,99.90
2017-12-31T07:51:25.350Z,99.90
2017-12-31T07:53:54.035Z,99.90
2017-12-31T07:56:22.746Z,99.90
2017-12-31T08:04:34.428Z,99.90
2017-12-31T08:07:03.103Z,99.90
2017-12-31T08:09:31.777Z,99.90
2017-12-31T08:12:00.140Z,99.90
2017-12-31T08:14:28.806Z,99.90
2017-12-31T08:16:57.933Z,99.90
2017-12-31T08:19:26.605Z,99.90
2017-12-31T08:21:55.281Z,99.90
2017-12-31T08:24:24.728Z,99.90
2017-12-31T08:26:53.402Z,99.90
2017-12-31T08:29:22.094Z,99.90
2017-12-31T08:31:50.759Z,99.90
2017-12-31T08:34:19.425Z,99.90
2017-12-31T08:36:48.873Z,99.90
2017-12-31T08:39:18.315Z,99.90
2017-12-31T08:41:47.206Z,99.90
2017-12-31T08:44:15.881Z,99.90
2017-12-31T08:46:44.566Z,99.90
2017-12-31T08:49:13.253Z,99.90
2017-12-31T08:51:41.933Z,99.90
2017-12-31T08:54:10.634Z,99.90
2017-12-31T08:56:39.304Z,99.90
2017-12-31T08:59:07.964Z,99.90
2017-12-31T09:01:36.662Z,99.90
2017-12-31T09:04:05.324Z,99.90
2017-12-31T09:06:34.017Z,99.90
2017-12-31T09:09:02.683Z,99.90
2017-12-31T09:11:32.119Z,99.90
2017-12-31T09:14:00.817Z,99.90
2017-12-31T09:16:29.473Z,99.90
2017-12-31T09:18:58.929Z,99.90
2017-12-31T09:21:27.600Z,99.90
2017-12-31T09:23:56.481Z,99.90
2017-12-31T09:26:25.161Z,99.90
2017-12-31T09:28:53.823Z,99.90
2017-12-31T09:31:23.320Z,99.90
2017-12-31T09:33:52.748Z,99.90
2017-12-31T09:36:21.413Z,99.90
2017-12-31T09:38:50.869Z,99.90
2017-12-31T09:41:19.349Z,99.90
2017-12-31T09:43:48.032Z,99.90
2017-12-31T09:46:16.695Z,99.90
2017-12-31T09:48:45.348Z,99.90
2017-12-31T09:51:14.020Z,99.90
2017-12-31T09:53:49.583Z,99.90
2017-12-31T10:55:16.310Z,99.90
2017-12-31T10:57:44.973Z,99.90
2017-12-31T11:00:13.644Z,99.90
2017-12-31T11:02:43.059Z,99.90
2017-12-31T11:05:11.724Z,99.90
2017-12-31T11:07:41.164Z,99.90
2017-12-31T11:10:09.833Z,99.90
2017-12-31T11:12:38.513Z,99.90
2017-12-31T11:15:07.928Z,99.90
2017-12-31T11:17:36.596Z,99.90
2017-12-31T11:20:06.041Z,99.90
2017-12-31T11:22:34.711Z,99.90
2017-12-31T11:25:03.397Z,99.90
2017-12-31T11:27:32.129Z,99.90
2017-12-31T11:30:01.585Z,99.90
2017-12-31T11:32:31.581Z,99.90
2017-12-31T11:35:01.010Z,99.90
2017-12-31T11:37:29.698Z,99.90
2017-12-31T11:39:58.365Z,99.90
2017-12-31T11:42:27.797Z,99.90
2017-12-31T11:44:56.150Z,99.90
2017-12-31T11:47:25.581Z,99.90
2017-12-31T11:49:54.278Z,99.90
2017-12-31T11:52:22.972Z,99.90
2017-12-31T11:54:51.641Z,99.90
2017-12-31T11:57:21.228Z,99.90
2017-12-31T11:59:49.902Z,99.90
2017-12-31T12:02:19.353Z,99.90
2017-12-31T12:04:48.021Z,99.90
2017-12-31T12:07:16.694Z,99.90
2017-12-31T12:09:45.373Z,99.90
2017-12-31T12:12:14.805Z,99.20
2017-12-31T12:14:43.497Z,99.20
2017-12-31T12:17:11.833Z,98.90
2017-12-31T12:25:29.104Z,98.30
2017-12-31T12:30:49.128Z,97.50
2017-12-31T12:33:18.622Z,97.30
2017-12-31T12:39:44.267Z,96.90
2017-12-31T12:42:12.944Z,96.70
2017-12-31T12:44:42.376Z,96.00
2017-12-31T12:47:11.033Z,95.90
2017-12-31T12:49:40.535Z,95.20
2017-12-31T12:52:09.376Z,95.20
2017-12-31T12:54:38.068Z,95.10
2017-12-31T12:57:06.757Z,94.80
2017-12-31T12:59:35.429Z,94.50
2017-12-31T13:02:04.118Z,93.80
2017-12-31T13:04:32.781Z,93.40
2017-12-31T13:07:01.480Z,93.00
2017-12-31T13:09:30.166Z,92.90
2017-12-31T13:11:59.765Z,92.00
2017-12-31T13:14:31.442Z,91.80
2017-12-31T13:17:00.102Z,91.50
2017-12-31T13:19:29.676Z,90.60
2017-12-31T13:21:58.349Z,90.60
2017-12-31T13:24:28.513Z,89.80
2017-12-31T13:26:57.198Z,89.10
2017-12-31T13:29:26.625Z,88.10
2017-12-31T13:31:56.076Z,87.00
2017-12-31T13:34:24.755Z,87.00
2017-12-31T13:36:53.441Z,87.30
2017-12-31T13:39:22.109Z,87.20
2017-12-31T13:41:50.780Z,85.50
2017-12-31T13:44:19.487Z,85.00
2017-12-31T13:46:48.184Z,83.90
2017-12-31T13:49:16.862Z,83.00
2017-12-31T13:51:46.020Z,82.60
2017-12-31T13:54:15.234Z,82.00
2017-12-31T13:56:44.141Z,81.80
2017-12-31T13:59:12.814Z,81.70
2017-12-31T14:01:41.873Z,81.80
2017-12-31T14:04:11.968Z,80.90
2017-12-31T14:06:43.341Z,80.90
2017-12-31T14:12:32.177Z,80.60
2017-12-31T14:15:00.897Z,81.20
2017-12-31T14:17:30.957Z,81.00
2017-12-31T14:19:59.629Z,81.80
2017-12-31T14:22:32.327Z,81.70
2017-12-31T14:25:01.809Z,81.70
2017-12-31T14:38:34.758Z,82.00
2017-12-31T14:41:03.449Z,82.60
2017-12-31T14:43:32.877Z,82.60
2017-12-31T14:46:02.634Z,83.30
2017-12-31T14:48:31.309Z,83.20
2017-12-31T14:50:59.976Z,83.30
2017-12-31T14:53:28.674Z,83.40
2017-12-31T14:55:57.350Z,83.40
2017-12-31T14:58:26.035Z,83.70
2017-12-31T15:00:54.728Z,84.00
2017-12-31T15:03:23.406Z,84.30
2017-12-31T15:05:52.087Z,84.10
2017-12-31T15:08:20.761Z,84.30
2017-12-31T15:16:37.142Z,85.30
2017-12-31T15:19:05.828Z,85.40
2017-12-31T15:21:38.857Z,85.30
2017-12-31T15:24:14.674Z,85.10
2017-12-31T15:29:50.511Z,85.90
2017-12-31T15:32:20.545Z,86.40
2017-12-31T15:34:49.265Z,86.30
2017-12-31T15:37:31.407Z,86.50
2017-12-31T15:40:05.638Z,86.70
2017-12-31T15:42:35.093Z,86.90
2017-12-31T15:45:03.430Z,86.90
2017-12-31T15:47:32.100Z,88.20
2017-12-31T15:50:02.342Z,87.40
2017-12-31T15:52:31.009Z,87.40
2017-12-31T15:55:01.574Z,88.20
2017-12-31T16:00:33.781Z,88.50
2017-12-31T16:03:07.337Z,88.70
2017-12-31T16:05:37.436Z,89.30
2017-12-31T16:08:06.089Z,89.30
2017-12-31T16:10:35.601Z,89.50
2017-12-31T16:13:05.843Z,89.90
2017-12-31T16:15:34.500Z,89.80
2017-12-31T16:18:03.192Z,89.90
2017-12-31T16:20:31.870Z,90.00
2017-12-31T16:23:00.540Z,90.10
2017-12-31T16:25:30.354Z,90.30
2017-12-31T16:27:59.010Z,90.40
2017-12-31T16:30:28.142Z,90.40
2017-12-31T16:32:56.469Z,90.30
2017-12-31T16:35:25.162Z,90.50
2017-12-31T16:37:53.835Z,90.60
2017-12-31T16:40:22.501Z,90.70
2017-12-31T16:42:51.193Z,90.60
2017-12-31T16:45:19.869Z,90.70
2017-12-31T16:47:48.527Z,90.70
2017-12-31T16:50:17.216Z,90.60
2017-12-31T16:52:46.048Z,90.60
2017-12-31T16:55:15.505Z,90.60
2017-12-31T16:57:44.801Z,90.60
2017-12-31T17:00:14.229Z,90.50
2017-12-31T17:02:42.910Z,90.50
2017-12-31T17:05:11.571Z,90.60
2017-12-31T17:07:41.030Z,90.90
2017-12-31T17:10:09.708Z,90.80
2017-12-31T17:12:38.412Z,91.00
2017-12-31T17:15:07.249Z,91.30
2017-12-31T17:17:36.677Z,91.70
2017-12-31T17:20:05.373Z,91.70
2017-12-31T17:22:34.039Z,91.70
2017-12-31T17:25:02.702Z,91.80
2017-12-31T17:27:32.153Z,92.00
2017-12-31T17:30:00.814Z,92.00
2017-12-31T17:32:29.530Z,92.20
2017-12-31T17:34:58.197Z,92.10
2017-12-31T17:37:27.593Z,91.90
2017-12-31T17:39:55.955Z,91.60
2017-12-31T17:42:25.199Z,91.20
2017-12-31T17:44:53.897Z,91.20
2017-12-31T17:47:22.557Z,91.10
2017-12-31T17:49:51.220Z,90.80
2017-12-31T17:52:20.662Z,90.70
2017-12-31T17:54:49.321Z,90.70
2017-12-31T17:57:18.771Z,90.40
2017-12-31T17:59:47.441Z,90.40
2017-12-31T18:02:16.139Z,90.30
2017-12-31T18:04:45.370Z,90.30
2017-12-31T18:07:14.031Z,90.30
2017-12-31T18:09:42.446Z,90.20
2017-12-31T18:12:11.301Z,89.90
2017-12-31T18:14:39.964Z,89.40
2017-12-31T18:17:08.645Z,89.00
2017-12-31T18:19:37.314Z,88.40
2017-12-31T18:22:05.997Z,88.30
2017-12-31T18:24:34.656Z,88.10
2017-12-31T18:27:03.304Z,87.20
2017-12-31T18:29:32.259Z,85.80
2017-12-31T18:32:01.689Z,83.10
2017-12-31T18:34:30.375Z,83.00
2017-12-31T18:36:59.028Z,82.50
2017-12-31T18:39:28.455Z,82.70
2017-12-31T18:41:57.125Z,82.40
2017-12-31T18:44:26.542Z,81.70
2017-12-31T18:46:55.065Z,81.60
2017-12-31T18:49:23.729Z,81.80
2017-12-31T18:51:52.394Z,82.00
2017-12-31T18:54:21.078Z,81.80
2017-12-31T18:56:49.748Z,82.00
2017-12-31T18:59:19.743Z,82.70
2017-12-31T19:01:48.410Z,82.60
2017-12-31T19:04:17.076Z,82.80
2017-12-31T19:06:45.781Z,83.00
2017-12-31T19:09:14.463Z,83.30
2017-12-31T19:11:43.219Z,83.30
2017-12-31T19:14:11.940Z,83.50
2017-12-31T19:16:40.606Z,83.50
2017-12-31T19:19:09.288Z,84.00
2017-12-31T19:21:37.989Z,84.50
2017-12-31T19:26:35.834Z,84.20
2017-12-31T19:29:05.300Z,84.30
2017-12-31T19:31:34.007Z,84.40
2017-12-31T19:34:02.349Z,84.30
2017-12-31T19:36:31.040Z,84.20
2017-12-31T19:39:00.485Z,84.30
2017-12-31T19:41:28.842Z,84.60
2017-12-31T19:43:58.908Z,84.80
2017-12-31T19:46:28.341Z,84.80
2017-12-31T19:48:57.565Z,84.80
2017-12-31T19:51:26.238Z,84.80
2017-12-31T19:53:55.476Z,84.80
2017-12-31T19:56:23.962Z,84.70
2017-12-31T19:58:53.421Z,85.10
2017-12-31T20:01:22.490Z,85.10
2017-12-31T20:03:51.682Z,85.00
2017-12-31T20:06:21.113Z,84.40
2017-12-31T20:08:49.796Z,84.10
2017-12-31T20:11:18.476Z,83.80
2017-12-31T20:13:47.178Z,83.70
2017-12-31T20:16:15.840Z,83.90
2017-12-31T20:18:44.536Z,84.00
2017-12-31T20:21:13.215Z,84.10
2017-12-31T20:23:41.880Z,84.10
2017-12-31T20:26:11.377Z,84.10
2017-12-31T20:28:40.034Z,84.00
2017-12-31T20:31:08.708Z,84.10
2017-12-31T20:33:37.397Z,84.10
2017-12-31T20:36:06.071Z,84.60
2017-12-31T20:38:34.752Z,83.80
2017-12-31T20:41:03.224Z,83.60
2017-12-31T20:43:31.557Z,83.20
2017-12-31T20:45:59.897Z,83.10
2017-12-31T20:48:28.220Z,82.40
2017-12-31T20:50:56.913Z,81.90
2017-12-31T20:53:26.716Z,81.80
2017-12-31T20:55:55.373Z,81.90
2017-12-31T20:58:24.062Z,81.80
2017-12-31T21:00:52.740Z,82.00
2017-12-31T21:03:21.440Z,81.90
2017-12-31T21:05:50.117Z,82.10
2017-12-31T22:42:17.065Z,81.50
2017-12-31T22:44:45.764Z,78.10
2017-12-31T22:47:14.421Z,78.40
2017-12-31T22:49:43.110Z,79.10
2017-12-31T22:52:11.952Z,78.50
2017-12-31T22:54:41.188Z,78.80
2017-12-31T22:57:09.881Z,78.80
2017-12-31T22:59:38.609Z,78.70
2017-12-31T23:02:08.115Z,78.30
2017-12-31T23:04:37.572Z,78.00
2017-12-31T23:07:06.241Z,78.00
2017-12-31T23:09:34.757Z,78.10
2017-12-31T23:12:03.476Z,78.00
2017-12-31T23:14:32.926Z,77.40
2017-12-31T23:17:01.624Z,77.40
2017-12-31T23:19:30.303Z,77.00
2017-12-31T23:21:59.062Z,76.70
2017-12-31T23:24:27.906Z,76.10
2017-12-31T23:26:56.625Z,75.70
2017-12-31T23:29:25.278Z,75.50
2017-12-31T23:31:53.944Z,75.20
2017-12-31T23:34:22.646Z,74.80
2017-12-31T23:36:51.140Z,74.70
2017-12-31T23:39:19.809Z,74.40
2017-12-31T23:41:48.486Z,74.30
2017-12-31T23:44:17.177Z,74.20
2017-12-31T23:46:45.877Z,73.70
2017-12-31T23:49:14.600Z,73.60
2017-12-31T23:51:44.034Z,73.20
2017-12-31T23:54:12.729Z,73.30
2017-12-31T23:56:41.222Z,73.00
2017-12-31T23:59:09.725Z,72.80
